Roza A — TCRB7 — position and weather

sailwx.info

Track history (hours):
 
Tides and Currents Weather Stations Pressure Air Temp Water Temp Dewpoint Dewpoint Depression Visibility Wind Speed Wind Dir Waves Ship Positions

Roza A

Last reported at 2015-Aug-29 13:17 UTC. Time now 2015-Aug-30 09:55 UTC.
Position N 38°28' E 024°27'.

Length 169 m; draft 8.8 m.

Type: Ship (hazmat cat A). MMSI: 271001057.

Date/timePositionNaut miles runAvg speedWind from/ knotsBaromVisibWave heightAir tempDewpointWater temp
2015-Aug-29 13:17N 38°28' E 024°27'1012.3
2015-Aug-29 12:26N 38°18' E 024°33'3110.6
2015-Aug-29 09:33N 37°49' E 024°25'1713.0
2015-Aug-29 08:14N 37°37' E 024°09'913.6
2015-Aug-29 07:33N 37°36' E 023°58'1313.4
2015-Aug-29 06:33N 37°40' E 023°42'1413.6
2015-Aug-29 05:33N 37°53' E 023°36'4 4.0
2015-Aug-29 04:32N 37°57' E 023°36'0 0.0
2015-Aug-29 03:32N 37°57' E 023°36'0 0.0
2015-Aug-29 02:32N 37°57' E 023°36'0 0.0
2015-Aug-29 01:32N 37°57' E 023°36'0 0.0
2015-Aug-29 00:32N 37°57' E 023°36'0 0.0
2015-Aug-28 23:32N 37°57' E 023°36'0 0.0
2015-Aug-28 22:32N 37°57' E 023°36'1 0.7
2015-Aug-28 21:33N 37°56' E 023°36'2 2.4
2015-Aug-28 20:33N 37°54' E 023°35'2 1.8
2015-Aug-28 19:32N 37°53' E 023°33'0 0.1
2015-Aug-28 18:32N 37°53' E 023°33'0 0.0
2015-Aug-28 17:32N 37°53' E 023°33'0 0.0
2015-Aug-28 16:29N 37°53' E 023°33'0 0.0
2015-Aug-28 15:29N 37°53' E 023°33'0 0.0
2015-Aug-28 14:32N 37°53' E 023°33'0 0.0
2015-Aug-28 13:32N 37°53' E 023°33'0 0.0
2015-Aug-28 12:29N 37°53' E 023°33'0 0.0
2015-Aug-28 11:32N 37°53' E 023°33'0 0.0
2015-Aug-28 10:29N 37°53' E 023°33'0 0.1
2015-Aug-28 09:33N 37°53' E 023°33'5 4.6
2015-Aug-28 08:33N 37°52' E 023°38'9 8.7
2015-Aug-28 07:33N 37°44' E 023°43'9 9.5
2015-Aug-28 06:33N 37°35' E 023°47'10 9.7
2015-Aug-28 05:33N 37°26' E 023°42'18 9.1
2015-Aug-28 03:33N 37°10' E 023°32'10 9.4
2015-Aug-28 02:28N 37°01' E 023°26'9 9.5
2015-Aug-28 01:33N 36°53' E 023°21'34710.7
2015-Aug-26 17:13N 37°45' E 016°10'913.9
2015-Aug-26 16:33N 37°47' E 015°59'1413.7
2015-Aug-26 15:33N 37°52' E 015°42'1413.6
2015-Aug-26 14:34N 38°04' E 015°34'1211.9
2015-Aug-26 13:34N 38°15' E 015°39'1010.0
2015-Aug-26 12:33N 38°24' E 015°33'1414.2
2015-Aug-26 11:33N 38°34' E 015°20'1414.0
2015-Aug-26 10:33N 38°44' E 015°07'1413.8
2015-Aug-26 09:33N 38°52' E 014°52'8613.9
2015-Aug-26 03:24N 39°36' E 013°18'1413.9
2015-Aug-26 02:22N 39°44' E 013°02'28413.6
2015-Aug-25 05:31N 41°59' E 007°31'9 9.5
2015-Aug-25 04:33N 42°04' E 007°21'1312.5
2015-Aug-25 03:33N 42°11' E 007°06'1414.1
2015-Aug-25 02:33N 42°18' E 006°51'7014.1
2015-Aug-24 21:32N 42°56' E 005°29'1313.7
2015-Aug-24 20:33N 43°03' E 005°14'1212.5
2015-Aug-24 19:34N 43°11' E 005°01'1212.5
2015-Aug-24 18:34N 43°23' E 004°56'4 3.8
2015-Aug-24 17:33N 43°24' E 004°51'0 0.0
2015-Aug-24 16:32N 43°24' E 004°51'0 0.0
2015-Aug-24 15:32N 43°24' E 004°51'0 0.0
2015-Aug-24 14:32N 43°24' E 004°51'0 0.0
2015-Aug-24 13:32N 43°24' E 004°51'0 0.0
2015-Aug-24 12:32N 43°24' E 004°51'0 0.0
2015-Aug-24 11:32N 43°24' E 004°51'0 0.0
2015-Aug-24 10:29N 43°24' E 004°51'0 0.0
2015-Aug-24 09:29N 43°24' E 004°51'0 0.0
2015-Aug-24 08:32N 43°24' E 004°51'0 0.0
2015-Aug-24 07:32N 43°24' E 004°51'0 0.0
2015-Aug-24 06:32N 43°24' E 004°51'0 0.0
2015-Aug-24 05:32N 43°24' E 004°51'0 0.0
2015-Aug-24 04:29N 43°24' E 004°51'0 0.0
2015-Aug-24 03:32N 43°24' E 004°51'0 0.0
2015-Aug-24 02:32N 43°24' E 004°51'0 0.0
2015-Aug-24 01:32N 43°24' E 004°51'0 0.0
2015-Aug-24 00:32N 43°24' E 004°51'0 0.0
2015-Aug-23 23:32N 43°24' E 004°51'0 0.0
2015-Aug-23 22:32N 43°24' E 004°51'0 0.0
2015-Aug-23 21:32N 43°24' E 004°51'0 0.0
2015-Aug-23 20:32N 43°24' E 004°51'0 0.0
2015-Aug-23 19:32N 43°24' E 004°51'0 0.0
2015-Aug-23 18:32N 43°24' E 004°51'0 0.0
2015-Aug-23 17:32N 43°24' E 004°51'0 0.0
2015-Aug-23 16:29N 43°24' E 004°51'0 0.0
2015-Aug-23 15:32N 43°24' E 004°51'0 0.0
2015-Aug-23 14:29N 43°24' E 004°51'0 0.0
2015-Aug-23 13:32N 43°24' E 004°51'0 0.0
2015-Aug-23 12:32N 43°24' E 004°51'0 0.0
2015-Aug-23 11:32N 43°24' E 004°51'0 0.0
2015-Aug-23 10:32N 43°24' E 004°51'0 0.0
2015-Aug-23 09:29N 43°24' E 004°51'0 0.0
2015-Aug-23 08:32N 43°24' E 004°51'0 0.0
2015-Aug-23 07:32N 43°24' E 004°51'0 0.0
2015-Aug-23 06:32N 43°24' E 004°51'0 0.0
2015-Aug-23 05:32N 43°24' E 004°51'0 0.0
2015-Aug-23 04:29N 43°24' E 004°51'0 0.0
2015-Aug-23 03:32N 43°24' E 004°51'0 0.0
2015-Aug-23 02:32N 43°24' E 004°51'0 0.0
2015-Aug-23 01:32N 43°24' E 004°51'0 0.1
2015-Aug-23 00:34N 43°25' E 004°51'7 6.8
2015-Aug-22 23:34N 43°21' E 004°59'1010.0
2015-Aug-22 22:33N 43°11' E 005°02'1211.6
2015-Aug-22 21:33N 43°02' E 004°51'2311.3
2015-Aug-22 19:34N 42°45' E 004°31'1211.7
2015-Aug-22 18:33N 42°36' E 004°21'1211.9
2015-Aug-22 17:33N 42°27' E 004°11'2711.3
2015-Aug-22 15:09N 42°06' E 003°47'8710.0
2015-Aug-22 06:29N 41°17' E 002°11'5 2.2
2015-Aug-22 04:19N 41°21' E 002°10'0 0.0
2015-Aug-22 03:33N 41°21' E 002°10'0 0.0
2015-Aug-22 02:33N 41°21' E 002°10'0 0.0
2015-Aug-22 01:33N 41°21' E 002°10'0 0.0
2015-Aug-22 00:32N 41°22' E 002°10'0 0.0
2015-Aug-21 23:32N 41°21' E 002°10'0 0.0
2015-Aug-21 22:31N 41°22' E 002°10'0 0.0
2015-Aug-21 21:33N 41°21' E 002°10'0 0.0
2015-Aug-21 20:16N 41°21' E 002°10'0 0.0
2015-Aug-21 19:30N 41°22' E 002°10'0 0.0
2015-Aug-21 18:33N 41°21' E 002°10'0 0.0
2015-Aug-21 17:33N 41°21' E 002°10'0 0.0
2015-Aug-21 16:33N 41°21' E 002°10'1 0.7
2015-Aug-21 15:33N 41°21' E 002°10'5 5.1
2015-Aug-21 14:33N 41°18' E 002°16'2 1.5
2015-Aug-21 13:32N 41°19' E 002°18'1 1.0
2015-Aug-21 12:29N 41°18' E 002°16'32 8.0
2015-Aug-21 08:32N 40°55' E 001°48'1814.2
2015-Aug-21 07:16N 40°41' E 001°33'1014.3
2015-Aug-21 06:34N 40°35' E 001°22'1514.5
2015-Aug-21 05:33N 40°27' E 001°06'1514.6
2015-Aug-21 04:33N 40°19' E 000°50'1414.1
2015-Aug-21 03:32N 40°11' E 000°34'28 5.5
2015-Aug-20 22:26N 39°58' E 000°02'1 0.2
2015-Aug-20 16:24N 39°57' E 000°03'2411.3
2015-Aug-20 14:18N 39°34' W 000°05'1114.1
2015-Aug-20 13:33N 39°27' W 000°15'3 2.1
2015-Aug-20 12:09N 39°27' W 000°19'0 0.0
2015-Aug-20 10:27N 39°27' W 000°19'0 0.0
2015-Aug-20 09:33N 39°27' W 000°19'0 0.0
2015-Aug-20 08:21N 39°27' W 000°19'0 0.0
2015-Aug-20 07:33N 39°27' W 000°19'0 0.0
2015-Aug-20 06:33N 39°27' W 000°19'0 0.0
2015-Aug-20 05:21N 39°27' W 000°19'0 0.0
2015-Aug-20 04:33N 39°27' W 000°19'0 0.0
2015-Aug-20 03:30N 39°27' W 000°19'0 0.0
2015-Aug-20 02:33N 39°27' W 000°19'0 0.0
2015-Aug-20 01:30N 39°27' W 000°19'0 0.0
2015-Aug-20 00:33N 39°27' W 000°19'0 0.0
2015-Aug-19 23:27N 39°27' W 000°19'0 0.0
2015-Aug-19 22:33N 39°27' W 000°19'0 0.0
2015-Aug-19 21:33N 39°27' W 000°19'0 0.0
2015-Aug-19 20:33N 39°27' W 000°19'0 0.0
2015-Aug-19 19:27N 39°27' W 000°19'3 3.8
2015-Aug-19 18:33N 39°25' W 000°16'0 0.4
2015-Aug-19 17:26N 39°24' W 000°16'0 0.0
2015-Aug-19 16:26N 39°24' W 000°16'0 0.0
2015-Aug-19 15:32N 39°24' W 000°16'0 0.0
2015-Aug-19 14:32N 39°24' W 000°16'  
Track history (hours):
 
Tides and Currents Weather Stations Pressure Air Temp Water Temp Dewpoint Dewpoint Depression Visibility Wind Speed Wind Dir Waves Ship Positions

Roza A

Last reported at 2015-Aug-29 13:17 UTC. Time now 2015-Aug-30 09:55 UTC.
Position N 38°28' E 024°27'.

Length 169 m; draft 8.8 m.

Type: Ship (hazmat cat A). MMSI: 271001057.

Date/timePositionNaut miles runAvg speedWind from/ knotsBaromVisibWave heightAir tempDewpointWater temp
2015-Aug-29 13:17N 38°28' E 024°27'1012.3
2015-Aug-29 12:26N 38°18' E 024°33'3110.6
2015-Aug-29 09:33N 37°49' E 024°25'1713.0
2015-Aug-29 08:14N 37°37' E 024°09'913.6
2015-Aug-29 07:33N 37°36' E 023°58'1313.4
2015-Aug-29 06:33N 37°40' E 023°42'1413.6
2015-Aug-29 05:33N 37°53' E 023°36'4 4.0
2015-Aug-29 04:32N 37°57' E 023°36'0 0.0
2015-Aug-29 03:32N 37°57' E 023°36'0 0.0
2015-Aug-29 02:32N 37°57' E 023°36'0 0.0
2015-Aug-29 01:32N 37°57' E 023°36'0 0.0
2015-Aug-29 00:32N 37°57' E 023°36'0 0.0
2015-Aug-28 23:32N 37°57' E 023°36'0 0.0
2015-Aug-28 22:32N 37°57' E 023°36'1 0.7
2015-Aug-28 21:33N 37°56' E 023°36'2 2.4
2015-Aug-28 20:33N 37°54' E 023°35'2 1.8
2015-Aug-28 19:32N 37°53' E 023°33'0 0.1
2015-Aug-28 18:32N 37°53' E 023°33'0 0.0
2015-Aug-28 17:32N 37°53' E 023°33'0 0.0
2015-Aug-28 16:29N 37°53' E 023°33'0 0.0
2015-Aug-28 15:29N 37°53' E 023°33'0 0.0
2015-Aug-28 14:32N 37°53' E 023°33'0 0.0
2015-Aug-28 13:32N 37°53' E 023°33'0 0.0
2015-Aug-28 12:29N 37°53' E 023°33'0 0.0
2015-Aug-28 11:32N 37°53' E 023°33'0 0.0
2015-Aug-28 10:29N 37°53' E 023°33'0 0.1
2015-Aug-28 09:33N 37°53' E 023°33'5 4.6
2015-Aug-28 08:33N 37°52' E 023°38'9 8.7
2015-Aug-28 07:33N 37°44' E 023°43'9 9.5
2015-Aug-28 06:33N 37°35' E 023°47'10 9.7
2015-Aug-28 05:33N 37°26' E 023°42'18 9.1
2015-Aug-28 03:33N 37°10' E 023°32'10 9.4
2015-Aug-28 02:28N 37°01' E 023°26'9 9.5
2015-Aug-28 01:33N 36°53' E 023°21'34710.7
2015-Aug-26 17:13N 37°45' E 016°10'913.9
2015-Aug-26 16:33N 37°47' E 015°59'1413.7
2015-Aug-26 15:33N 37°52' E 015°42'1413.6
2015-Aug-26 14:34N 38°04' E 015°34'1211.9
2015-Aug-26 13:34N 38°15' E 015°39'1010.0
2015-Aug-26 12:33N 38°24' E 015°33'1414.2
2015-Aug-26 11:33N 38°34' E 015°20'1414.0
2015-Aug-26 10:33N 38°44' E 015°07'1413.8
2015-Aug-26 09:33N 38°52' E 014°52'8613.9
2015-Aug-26 03:24N 39°36' E 013°18'1413.9
2015-Aug-26 02:22N 39°44' E 013°02'28413.6
2015-Aug-25 05:31N 41°59' E 007°31'9 9.5
2015-Aug-25 04:33N 42°04' E 007°21'1312.5
2015-Aug-25 03:33N 42°11' E 007°06'1414.1
2015-Aug-25 02:33N 42°18' E 006°51'7014.1
2015-Aug-24 21:32N 42°56' E 005°29'1313.7
2015-Aug-24 20:33N 43°03' E 005°14'1212.5
2015-Aug-24 19:34N 43°11' E 005°01'1212.5
2015-Aug-24 18:34N 43°23' E 004°56'4 3.8
2015-Aug-24 17:33N 43°24' E 004°51'0 0.0
2015-Aug-24 16:32N 43°24' E 004°51'0 0.0
2015-Aug-24 15:32N 43°24' E 004°51'0 0.0
2015-Aug-24 14:32N 43°24' E 004°51'0 0.0
2015-Aug-24 13:32N 43°24' E 004°51'0 0.0
2015-Aug-24 12:32N 43°24' E 004°51'0 0.0
2015-Aug-24 11:32N 43°24' E 004°51'0 0.0
2015-Aug-24 10:29N 43°24' E 004°51'0 0.0
2015-Aug-24 09:29N 43°24' E 004°51'0 0.0
2015-Aug-24 08:32N 43°24' E 004°51'0 0.0
2015-Aug-24 07:32N 43°24' E 004°51'0 0.0
2015-Aug-24 06:32N 43°24' E 004°51'0 0.0
2015-Aug-24 05:32N 43°24' E 004°51'0 0.0
2015-Aug-24 04:29N 43°24' E 004°51'0 0.0
2015-Aug-24 03:32N 43°24' E 004°51'0 0.0
2015-Aug-24 02:32N 43°24' E 004°51'0 0.0
2015-Aug-24 01:32N 43°24' E 004°51'0 0.0
2015-Aug-24 00:32N 43°24' E 004°51'0 0.0
2015-Aug-23 23:32N 43°24' E 004°51'0 0.0
2015-Aug-23 22:32N 43°24' E 004°51'0 0.0
2015-Aug-23 21:32N 43°24' E 004°51'0 0.0
2015-Aug-23 20:32N 43°24' E 004°51'0 0.0
2015-Aug-23 19:32N 43°24' E 004°51'0 0.0
2015-Aug-23 18:32N 43°24' E 004°51'0 0.0
2015-Aug-23 17:32N 43°24' E 004°51'0 0.0
2015-Aug-23 16:29N 43°24' E 004°51'0 0.0
2015-Aug-23 15:32N 43°24' E 004°51'0 0.0
2015-Aug-23 14:29N 43°24' E 004°51'0 0.0
2015-Aug-23 13:32N 43°24' E 004°51'0 0.0
2015-Aug-23 12:32N 43°24' E 004°51'0 0.0
2015-Aug-23 11:32N 43°24' E 004°51'0 0.0
2015-Aug-23 10:32N 43°24' E 004°51'0 0.0
2015-Aug-23 09:29N 43°24' E 004°51'0 0.0
2015-Aug-23 08:32N 43°24' E 004°51'0 0.0
2015-Aug-23 07:32N 43°24' E 004°51'0 0.0
2015-Aug-23 06:32N 43°24' E 004°51'0 0.0
2015-Aug-23 05:32N 43°24' E 004°51'0 0.0
2015-Aug-23 04:29N 43°24' E 004°51'0 0.0
2015-Aug-23 03:32N 43°24' E 004°51'0 0.0
2015-Aug-23 02:32N 43°24' E 004°51'0 0.0
2015-Aug-23 01:32N 43°24' E 004°51'0 0.1
2015-Aug-23 00:34N 43°25' E 004°51'7 6.8
2015-Aug-22 23:34N 43°21' E 004°59'1010.0
2015-Aug-22 22:33N 43°11' E 005°02'1211.6
2015-Aug-22 21:33N 43°02' E 004°51'2311.3
2015-Aug-22 19:34N 42°45' E 004°31'1211.7
2015-Aug-22 18:33N 42°36' E 004°21'1211.9
2015-Aug-22 17:33N 42°27' E 004°11'2711.3
2015-Aug-22 15:09N 42°06' E 003°47'8710.0
2015-Aug-22 06:29N 41°17' E 002°11'5 2.2
2015-Aug-22 04:19N 41°21' E 002°10'0 0.0
2015-Aug-22 03:33N 41°21' E 002°10'0 0.0
2015-Aug-22 02:33N 41°21' E 002°10'0 0.0
2015-Aug-22 01:33N 41°21' E 002°10'0 0.0
2015-Aug-22 00:32N 41°22' E 002°10'0 0.0
2015-Aug-21 23:32N 41°21' E 002°10'0 0.0
2015-Aug-21 22:31N 41°22' E 002°10'0 0.0
2015-Aug-21 21:33N 41°21' E 002°10'0 0.0
2015-Aug-21 20:16N 41°21' E 002°10'0 0.0
2015-Aug-21 19:30N 41°22' E 002°10'0 0.0
2015-Aug-21 18:33N 41°21' E 002°10'0 0.0
2015-Aug-21 17:33N 41°21' E 002°10'0 0.0
2015-Aug-21 16:33N 41°21' E 002°10'1 0.7
2015-Aug-21 15:33N 41°21' E 002°10'5 5.1
2015-Aug-21 14:33N 41°18' E 002°16'2 1.5
2015-Aug-21 13:32N 41°19' E 002°18'1 1.0
2015-Aug-21 12:29N 41°18' E 002°16'32 8.0
2015-Aug-21 08:32N 40°55' E 001°48'1814.2
2015-Aug-21 07:16N 40°41' E 001°33'1014.3
2015-Aug-21 06:34N 40°35' E 001°22'1514.5
2015-Aug-21 05:33N 40°27' E 001°06'1514.6
2015-Aug-21 04:33N 40°19' E 000°50'1414.1
2015-Aug-21 03:32N 40°11' E 000°34'28 5.5
2015-Aug-20 22:26N 39°58' E 000°02'1 0.2
2015-Aug-20 16:24N 39°57' E 000°03'2411.3
2015-Aug-20 14:18N 39°34' W 000°05'1114.1
2015-Aug-20 13:33N 39°27' W 000°15'3 2.1
2015-Aug-20 12:09N 39°27' W 000°19'0 0.0
2015-Aug-20 10:27N 39°27' W 000°19'0 0.0
2015-Aug-20 09:33N 39°27' W 000°19'0 0.0
2015-Aug-20 08:21N 39°27' W 000°19'0 0.0
2015-Aug-20 07:33N 39°27' W 000°19'0 0.0
2015-Aug-20 06:33N 39°27' W 000°19'0 0.0
2015-Aug-20 05:21N 39°27' W 000°19'0 0.0
2015-Aug-20 04:33N 39°27' W 000°19'0 0.0
2015-Aug-20 03:30N 39°27' W 000°19'0 0.0
2015-Aug-20 02:33N 39°27' W 000°19'0 0.0
2015-Aug-20 01:30N 39°27' W 000°19'0 0.0
2015-Aug-20 00:33N 39°27' W 000°19'0 0.0
2015-Aug-19 23:27N 39°27' W 000°19'0 0.0
2015-Aug-19 22:33N 39°27' W 000°19'0 0.0
2015-Aug-19 21:33N 39°27' W 000°19'0 0.0
2015-Aug-19 20:33N 39°27' W 000°19'0 0.0
2015-Aug-19 19:27N 39°27' W 000°19'3 3.8
2015-Aug-19 18:33N 39°25' W 000°16'0 0.4
2015-Aug-19 17:26N 39°24' W 000°16'0 0.0
2015-Aug-19 16:26N 39°24' W 000°16'0 0.0
2015-Aug-19 15:32N 39°24' W 000°16'0 0.0
2015-Aug-19 14:32N 39°24' W 000°16'  

Dump ship's entire track history